Terminal Aerodrome Forecast
Issued by NWS

Home | Current Version | Previous Version | Text Only | Print | Product List | Glossary On
Versions: 1 2 3 4 5 6 7 8 9 10 11 12 13 14 15 16 17
052
FTUS46 KSEW 282320
TAFCLM
TAF
KCLM 282320Z 2900/2924 32006KT P6SM SKC
     FM290300 29008KT P6SM SKC
     FM291000 29012G18KT P6SM FEW012
     FM291300 30010KT P6SM BKN012
     FM291700 32008KT P6SM SCT015
     FM291900 32008KT P6SM SKC=

USA.gov is the U.S. government's official web portal to all federal, state and local government web resources and services.